createdAt,value
2017-08-15T00:01:29.793Z,95.10
2017-08-15T00:03:57.333Z,95.10
2017-08-15T00:06:24.845Z,95.20
2017-08-15T00:08:52.443Z,95.30
2017-08-15T00:11:19.969Z,95.30
2017-08-15T00:13:47.485Z,95.20
2017-08-15T00:16:15.026Z,95.30
2017-08-15T00:18:42.538Z,95.30
2017-08-15T00:21:10.102Z,95.30
2017-08-15T00:23:37.670Z,95.30
2017-08-15T00:26:05.206Z,95.30
2017-08-15T00:28:32.693Z,95.40
2017-08-15T00:31:00.459Z,95.40
2017-08-15T00:33:27.992Z,95.60
2017-08-15T00:35:55.681Z,95.50
2017-08-15T00:38:23.214Z,95.40
2017-08-15T00:40:50.772Z,95.60
2017-08-15T00:43:18.338Z,95.40
2017-08-15T00:45:45.872Z,95.70
2017-08-15T00:48:13.518Z,95.40
2017-08-15T00:50:41.073Z,95.40
2017-08-15T00:53:08.604Z,95.50
2017-08-15T00:55:36.116Z,95.70
2017-08-15T00:58:03.660Z,95.60
2017-08-15T01:00:31.185Z,95.60
2017-08-15T01:02:58.715Z,95.70
2017-08-15T01:05:26.278Z,95.80
2017-08-15T01:07:53.875Z,95.70
2017-08-15T01:10:21.434Z,95.70
2017-08-15T01:12:49.003Z,95.80
2017-08-15T01:15:16.729Z,95.80
2017-08-15T01:17:44.265Z,95.80
2017-08-15T01:20:12.203Z,95.70
2017-08-15T01:22:39.780Z,95.60
2017-08-15T01:25:07.291Z,95.50
2017-08-15T01:27:34.846Z,95.40
2017-08-15T01:30:02.419Z,95.30
2017-08-15T01:32:29.912Z,95.40
2017-08-15T01:34:57.472Z,95.30
2017-08-15T01:37:25.054Z,95.20
2017-08-15T01:39:52.583Z,95.30
2017-08-15T01:42:20.138Z,95.30
2017-08-15T01:44:47.696Z,95.30
2017-08-15T01:47:15.247Z,95.40
2017-08-15T01:49:42.795Z,95.50
2017-08-15T01:52:10.512Z,95.50
2017-08-15T01:54:38.064Z,95.40
2017-08-15T01:57:05.580Z,95.30
2017-08-15T01:59:33.169Z,95.30
2017-08-15T02:02:00.707Z,95.20
2017-08-15T02:04:28.213Z,95.20
2017-08-15T02:06:55.794Z,95.10
2017-08-15T02:09:23.321Z,95.10
2017-08-15T02:11:50.801Z,95.30
2017-08-15T02:14:18.396Z,95.40
2017-08-15T02:16:45.973Z,95.40
2017-08-15T02:19:13.463Z,95.50
2017-08-15T02:21:41.207Z,95.70
2017-08-15T02:24:08.753Z,95.70
2017-08-15T02:26:36.280Z,95.80
2017-08-15T02:29:03.811Z,95.80
2017-08-15T02:31:31.329Z,95.70
2017-08-15T02:33:58.845Z,95.80
2017-08-15T02:36:26.441Z,95.90
2017-08-15T02:38:53.979Z,95.80
2017-08-15T02:41:21.539Z,95.90
2017-08-15T02:43:49.088Z,95.90
2017-08-15T02:46:16.607Z,96.00
2017-08-15T02:48:44.130Z,95.60
2017-08-15T02:51:11.748Z,95.60
2017-08-15T02:53:39.299Z,95.50
2017-08-15T02:56:06.817Z,95.50
2017-08-15T02:58:34.371Z,95.50
2017-08-15T03:01:01.882Z,95.30
2017-08-15T03:03:29.430Z,95.20
2017-08-15T03:05:56.985Z,95.30
2017-08-15T03:08:24.504Z,95.30
2017-08-15T03:10:52.024Z,95.40
2017-08-15T03:13:19.610Z,95.40
2017-08-15T03:15:47.154Z,95.50
2017-08-15T03:18:14.645Z,95.60
2017-08-15T03:20:42.223Z,95.80
2017-08-15T03:23:09.764Z,96.10
2017-08-15T03:25:37.298Z,95.90
2017-08-15T03:28:04.945Z,95.90
2017-08-15T03:30:32.514Z,95.50
2017-08-15T03:33:00.083Z,95.20
2017-08-15T03:35:27.808Z,95.10
2017-08-15T03:37:55.349Z,94.90
2017-08-15T03:40:22.900Z,95.00
2017-08-15T03:42:50.461Z,95.10
2017-08-15T03:45:17.992Z,95.00
2017-08-15T03:47:45.543Z,94.90
2017-08-15T03:50:13.116Z,94.30
2017-08-15T03:52:40.609Z,94.00
2017-08-15T03:55:08.168Z,93.80
2017-08-15T03:57:36.004Z,93.60
2017-08-15T04:00:03.497Z,93.20
2017-08-15T04:02:31.082Z,93.20
2017-08-15T04:04:58.828Z,92.80
2017-08-15T04:07:26.385Z,92.70
2017-08-15T04:09:53.953Z,92.10
2017-08-15T04:12:21.715Z,92.00
2017-08-15T04:14:49.300Z,91.70
2017-08-15T04:17:16.821Z,90.50
2017-08-15T04:19:44.632Z,87.90
2017-08-15T04:22:12.445Z,83.70
2017-08-15T04:24:40.011Z,79.10
2017-08-15T04:27:07.592Z,75.00
2017-08-15T04:29:35.110Z,72.50
2017-08-15T04:32:02.668Z,68.30
2017-08-15T04:34:30.335Z,67.10
2017-08-15T04:36:57.881Z,63.70
2017-08-15T04:39:25.408Z,61.40
2017-08-15T04:41:52.989Z,60.40
2017-08-15T04:44:20.584Z,58.80
2017-08-15T04:46:48.139Z,57.60
2017-08-15T04:49:15.741Z,57.30
2017-08-15T04:51:43.299Z,56.40
2017-08-15T04:54:10.854Z,54.90
2017-08-15T04:56:39.101Z,55.30
2017-08-15T04:59:06.695Z,54.20
2017-08-15T05:01:34.270Z,52.30
2017-08-15T05:04:01.911Z,51.50
2017-08-15T05:06:29.541Z,52.80
2017-08-15T05:08:57.103Z,51.40
2017-08-15T05:11:26.207Z,50.60
2017-08-15T05:13:53.766Z,48.60
2017-08-15T05:16:21.330Z,46.30
2017-08-15T05:18:48.936Z,46.60
2017-08-15T05:21:16.444Z,46.00
2017-08-15T05:23:43.977Z,45.60
2017-08-15T05:26:11.505Z,43.90
2017-08-15T05:28:39.061Z,42.70
2017-08-15T05:31:06.635Z,40.10
2017-08-15T05:33:34.169Z,39.60
2017-08-15T05:36:01.711Z,37.80
2017-08-15T05:38:29.289Z,36.70
2017-08-15T05:40:56.871Z,36.50
2017-08-15T05:43:24.387Z,35.60
2017-08-15T05:45:51.933Z,34.10
2017-08-15T05:48:19.534Z,34.30
2017-08-15T05:50:47.063Z,34.80
2017-08-15T05:53:14.612Z,33.00
2017-08-15T05:55:42.214Z,32.40
2017-08-15T05:58:09.817Z,31.30
2017-08-15T06:00:38.219Z,32.00
2017-08-15T06:03:05.802Z,31.50
2017-08-15T06:05:33.339Z,31.30
2017-08-15T06:08:00.871Z,33.00
2017-08-15T06:10:28.417Z,31.20
2017-08-15T06:12:55.950Z,31.30
2017-08-15T06:15:23.637Z,30.30
2017-08-15T06:17:51.351Z,29.40
2017-08-15T06:20:18.870Z,30.50
2017-08-15T06:22:46.411Z,30.50
2017-08-15T06:25:14.074Z,29.70
2017-08-15T06:27:41.733Z,31.00
2017-08-15T06:30:09.264Z,30.30
2017-08-15T06:32:36.795Z,31.30
2017-08-15T06:35:04.345Z,32.10
2017-08-15T06:37:31.900Z,32.70
2017-08-15T06:39:59.444Z,33.60
2017-08-15T06:42:26.987Z,33.60
2017-08-15T06:44:54.541Z,35.00
2017-08-15T06:47:22.146Z,33.70
2017-08-15T06:49:49.641Z,34.20
2017-08-15T06:52:17.192Z,31.30
2017-08-15T06:54:44.714Z,29.70
2017-08-15T06:57:12.226Z,29.30
2017-08-15T06:59:39.776Z,30.10
2017-08-15T07:02:07.357Z,29.70
2017-08-15T07:04:34.874Z,28.70
2017-08-15T07:07:02.428Z,29.80
2017-08-15T07:09:29.977Z,27.80
2017-08-15T07:11:57.528Z,29.30
2017-08-15T07:14:25.034Z,29.60
2017-08-15T07:16:52.564Z,30.00
2017-08-15T07:19:20.147Z,28.90
2017-08-15T07:21:47.664Z,27.90
2017-08-15T07:24:15.241Z,27.40
2017-08-15T07:26:42.763Z,27.60
2017-08-15T07:29:10.261Z,27.40
2017-08-15T07:31:37.950Z,27.30
2017-08-15T07:34:05.468Z,27.80
2017-08-15T07:39:25.349Z,25.90
2017-08-15T07:41:52.841Z,24.90
2017-08-15T07:44:20.400Z,25.00
2017-08-15T07:46:47.996Z,24.90
2017-08-15T07:49:29.220Z,24.70
2017-08-15T07:51:56.755Z,26.00
2017-08-15T07:54:24.306Z,26.70
2017-08-15T07:56:51.810Z,26.10
2017-08-15T07:59:19.378Z,24.90
2017-08-15T08:01:46.862Z,25.90
2017-08-15T08:04:14.380Z,26.00
2017-08-15T08:06:42.094Z,26.40
2017-08-15T08:09:09.648Z,25.10
2017-08-15T08:11:37.184Z,25.80
2017-08-15T08:14:04.787Z,25.20
2017-08-15T08:16:32.304Z,25.80
2017-08-15T08:18:59.850Z,24.40
2017-08-15T08:21:27.434Z,24.30
2017-08-15T08:23:54.981Z,22.70
2017-08-15T08:26:22.497Z,22.90
2017-08-15T08:28:50.030Z,24.20
2017-08-15T08:31:17.541Z,25.00
2017-08-15T08:33:45.105Z,24.30
2017-08-15T08:36:12.692Z,23.80
2017-08-15T08:38:40.323Z,24.30
2017-08-15T08:41:07.877Z,25.10
2017-08-15T08:43:35.452Z,24.50
2017-08-15T08:46:06.888Z,23.40
2017-08-15T08:48:34.456Z,24.70
2017-08-15T08:51:02.185Z,24.10
2017-08-15T08:53:29.763Z,24.30
2017-08-15T08:55:57.280Z,23.70
2017-08-15T08:58:24.845Z,22.40
2017-08-15T09:00:52.402Z,23.80
2017-08-15T09:03:19.945Z,24.60
2017-08-15T09:05:47.515Z,23.80
2017-08-15T09:08:15.015Z,23.30
2017-08-15T09:10:42.553Z,23.80
2017-08-15T09:13:10.139Z,24.20
2017-08-15T09:15:37.696Z,25.10
2017-08-15T09:18:05.208Z,23.30
2017-08-15T09:20:32.937Z,23.30
2017-08-15T09:23:00.523Z,23.10
2017-08-15T09:25:28.120Z,24.60
2017-08-15T09:27:55.740Z,23.80
2017-08-15T09:30:23.234Z,23.70
2017-08-15T09:32:50.758Z,24.20
2017-08-15T09:35:18.349Z,24.20
2017-08-15T09:37:45.950Z,23.20
2017-08-15T09:40:13.461Z,23.90
2017-08-15T09:42:41.189Z,24.20
2017-08-15T09:45:09.454Z,24.00
2017-08-15T09:47:36.989Z,24.20
2017-08-15T09:50:04.533Z,25.20
2017-08-15T09:52:32.077Z,22.10
2017-08-15T09:54:59.706Z,23.90
2017-08-15T09:57:27.385Z,24.00
2017-08-15T09:59:55.076Z,23.60
2017-08-15T10:02:22.619Z,25.40
2017-08-15T10:04:50.236Z,26.20
2017-08-15T10:07:17.811Z,24.30
2017-08-15T10:09:45.308Z,25.80
2017-08-15T10:12:12.920Z,24.80
2017-08-15T10:14:40.496Z,24.70
2017-08-15T10:17:08.060Z,25.10
2017-08-15T10:19:35.810Z,25.30
2017-08-15T10:22:03.353Z,24.60
2017-08-15T10:24:30.948Z,24.30
2017-08-15T10:26:58.522Z,23.20
2017-08-15T10:29:26.054Z,24.40
2017-08-15T10:31:53.609Z,25.30
2017-08-15T10:34:21.357Z,25.30
2017-08-15T10:36:51.826Z,26.20
2017-08-15T10:39:19.370Z,26.10
2017-08-15T10:41:47.086Z,27.70
2017-08-15T10:44:14.700Z,27.70
2017-08-15T10:46:42.216Z,27.00
2017-08-15T10:49:09.794Z,26.00
2017-08-15T10:51:37.289Z,26.40
2017-08-15T10:54:04.865Z,26.30
2017-08-15T10:56:32.449Z,25.50
2017-08-15T10:59:00.000Z,25.80
2017-08-15T11:01:27.565Z,25.60
2017-08-15T11:03:55.169Z,26.00
2017-08-15T11:06:22.740Z,26.00
2017-08-15T11:08:50.907Z,27.50
2017-08-15T11:11:18.514Z,28.30
2017-08-15T11:13:46.076Z,30.10
2017-08-15T11:16:13.621Z,30.40
2017-08-15T11:18:41.201Z,30.60
2017-08-15T11:21:08.741Z,29.00
2017-08-15T11:23:36.325Z,28.60
2017-08-15T11:26:03.901Z,28.40
2017-08-15T11:28:31.458Z,28.10
2017-08-15T11:30:59.055Z,25.60
2017-08-15T11:33:26.802Z,25.70
2017-08-15T11:35:54.344Z,27.10
2017-08-15T11:38:21.932Z,28.30
2017-08-15T11:40:49.480Z,29.10
2017-08-15T11:43:17.331Z,27.90
2017-08-15T11:45:44.891Z,27.90
2017-08-15T11:48:12.530Z,27.80
2017-08-15T11:50:40.111Z,30.00
2017-08-15T11:53:07.689Z,32.40
2017-08-15T11:55:35.269Z,33.80
2017-08-15T11:58:02.785Z,34.40
2017-08-15T12:00:31.325Z,35.10
2017-08-15T12:02:59.961Z,36.60
2017-08-15T12:05:27.724Z,35.30
2017-08-15T12:07:55.298Z,36.10
2017-08-15T12:10:22.900Z,37.20
2017-08-15T12:12:50.397Z,35.60
2017-08-15T12:15:18.153Z,38.20
2017-08-15T12:17:45.754Z,38.20
2017-08-15T12:20:13.312Z,37.20
2017-08-15T12:22:40.853Z,38.40
2017-08-15T12:25:08.423Z,39.80
2017-08-15T12:27:35.985Z,37.60
2017-08-15T12:30:03.544Z,38.80
2017-08-15T12:32:31.179Z,39.50
2017-08-15T12:34:58.712Z,39.80
2017-08-15T12:37:26.279Z,39.10
2017-08-15T12:39:53.864Z,39.30
2017-08-15T12:42:21.381Z,40.70
2017-08-15T12:44:48.948Z,39.30
2017-08-15T12:47:16.484Z,39.10
2017-08-15T12:49:44.087Z,40.40
2017-08-15T12:52:11.703Z,40.80
2017-08-15T12:54:39.327Z,41.20
2017-08-15T12:57:06.819Z,40.60
2017-08-15T12:59:34.404Z,41.20
2017-08-15T13:02:02.150Z,41.30
2017-08-15T13:04:29.865Z,39.90
2017-08-15T13:06:57.534Z,41.70
2017-08-15T13:09:25.326Z,39.50
2017-08-15T13:11:53.830Z,41.10
2017-08-15T13:14:21.894Z,40.80
2017-08-15T13:16:50.655Z,40.90
2017-08-15T13:19:19.318Z,41.10
2017-08-15T13:21:47.424Z,41.00
2017-08-15T13:24:16.374Z,41.30
2017-08-15T13:26:44.489Z,39.70
2017-08-15T13:29:12.498Z,39.90
2017-08-15T13:31:40.299Z,39.60
2017-08-15T13:34:07.859Z,41.80
2017-08-15T13:36:35.410Z,40.30
2017-08-15T13:39:03.186Z,41.00
2017-08-15T13:41:30.747Z,40.70
2017-08-15T13:43:58.295Z,36.30
2017-08-15T13:46:25.936Z,38.70
2017-08-15T13:48:53.507Z,38.80
2017-08-15T13:51:21.092Z,37.30
2017-08-15T13:53:48.814Z,38.40
2017-08-15T13:56:16.559Z,38.10
2017-08-15T13:58:44.708Z,38.30
2017-08-15T14:01:12.432Z,40.40
2017-08-15T14:03:39.995Z,39.50
2017-08-15T14:06:07.574Z,41.10
2017-08-15T14:08:35.337Z,40.20
2017-08-15T14:11:03.252Z,40.60
2017-08-15T14:13:30.911Z,40.90
2017-08-15T14:15:58.575Z,39.30
2017-08-15T14:18:26.173Z,40.60
2017-08-15T14:20:53.718Z,40.80
2017-08-15T14:23:21.382Z,39.80
2017-08-15T14:25:48.963Z,40.90
2017-08-15T14:28:16.536Z,39.70
2017-08-15T14:30:44.626Z,40.30
2017-08-15T14:36:02.674Z,40.00
2017-08-15T14:38:30.234Z,38.50
2017-08-15T14:40:57.794Z,38.30
2017-08-15T14:43:25.591Z,37.90
2017-08-15T14:45:53.179Z,38.60
2017-08-15T14:48:20.791Z,36.50
2017-08-15T14:50:49.038Z,36.50
2017-08-15T14:53:16.560Z,36.90
2017-08-15T14:55:44.302Z,37.70
2017-08-15T14:58:12.490Z,38.90
2017-08-15T15:00:40.032Z,39.20
2017-08-15T15:03:07.680Z,39.00
2017-08-15T15:05:35.275Z,38.80
2017-08-15T15:08:02.847Z,39.30
2017-08-15T15:10:30.434Z,39.80
2017-08-15T15:12:58.033Z,39.60
2017-08-15T15:15:25.640Z,39.70
2017-08-15T15:17:53.150Z,40.00
2017-08-15T15:20:20.759Z,40.30
2017-08-15T15:22:49.099Z,41.30
2017-08-15T15:25:16.590Z,40.20
2017-08-15T15:27:44.177Z,40.60
2017-08-15T15:30:11.761Z,40.70
2017-08-15T15:32:39.315Z,40.50
2017-08-15T15:35:07.035Z,42.00
2017-08-15T15:37:34.640Z,42.70
2017-08-15T15:40:02.203Z,42.70
2017-08-15T15:42:29.787Z,41.50
2017-08-15T15:44:57.359Z,41.40
2017-08-15T15:47:24.926Z,42.50
2017-08-15T15:49:52.554Z,42.70
2017-08-15T15:52:20.142Z,42.90
2017-08-15T15:54:47.742Z,43.60
2017-08-15T15:57:15.338Z,42.80
2017-08-15T15:59:42.910Z,42.70
2017-08-15T16:02:10.461Z,42.80
2017-08-15T16:04:38.046Z,42.80
2017-08-15T16:07:05.629Z,41.00
2017-08-15T16:09:33.179Z,41.80
2017-08-15T16:12:00.767Z,42.50
2017-08-15T16:14:28.295Z,42.40
2017-08-15T16:16:55.857Z,42.20
2017-08-15T16:19:23.403Z,43.50
2017-08-15T16:21:50.998Z,44.20
2017-08-15T16:24:18.744Z,43.70
2017-08-15T16:26:46.613Z,43.60
2017-08-15T16:29:15.098Z,44.00
2017-08-15T16:31:42.681Z,44.80
2017-08-15T16:34:10.288Z,44.30
2017-08-15T16:36:37.838Z,44.20
2017-08-15T16:39:05.608Z,44.00
2017-08-15T16:41:33.225Z,45.00
2017-08-15T16:44:00.729Z,44.70
2017-08-15T16:46:28.259Z,43.80
2017-08-15T16:48:55.800Z,44.10
2017-08-15T16:51:23.366Z,44.50
2017-08-15T16:53:51.708Z,44.50
2017-08-15T16:56:19.326Z,44.30
2017-08-15T16:58:46.859Z,44.60
2017-08-15T17:01:14.447Z,44.60
2017-08-15T17:03:42.042Z,44.40
2017-08-15T17:06:09.600Z,46.20
2017-08-15T17:08:37.164Z,46.50
2017-08-15T17:11:04.738Z,46.90
2017-08-15T17:13:32.291Z,47.20
2017-08-15T17:16:01.169Z,47.00
2017-08-15T17:18:29.045Z,48.50
2017-08-15T17:20:56.674Z,48.50
2017-08-15T17:23:31.575Z,48.90
2017-08-15T17:25:59.181Z,50.00
2017-08-15T17:28:26.738Z,48.60
2017-08-15T17:30:54.474Z,49.10
2017-08-15T17:33:22.006Z,50.50
2017-08-15T17:35:49.597Z,48.60
2017-08-15T17:38:17.363Z,48.40
2017-08-15T17:40:45.553Z,49.20
2017-08-15T17:43:13.187Z,49.30
2017-08-15T17:45:40.738Z,49.50
2017-08-15T17:48:08.279Z,48.60
2017-08-15T17:50:35.809Z,49.30
2017-08-15T17:53:03.419Z,51.70
2017-08-15T17:55:31.326Z,51.30
2017-08-15T17:57:58.939Z,52.50
2017-08-15T18:00:26.668Z,54.60
2017-08-15T18:02:54.283Z,54.30
2017-08-15T18:05:21.870Z,56.20
2017-08-15T18:07:49.553Z,57.50
2017-08-15T18:10:17.162Z,56.40
2017-08-15T18:12:44.951Z,57.80
2017-08-15T18:15:12.609Z,60.40
2017-08-15T18:17:40.221Z,59.70
2017-08-15T18:20:07.830Z,60.00
2017-08-15T18:22:35.608Z,61.60
2017-08-15T18:25:03.727Z,61.50
2017-08-15T18:27:33.280Z,60.60
2017-08-15T18:30:01.180Z,61.30
2017-08-15T18:32:28.840Z,62.00
2017-08-15T18:34:56.469Z,60.90
2017-08-15T18:37:24.124Z,61.40
2017-08-15T18:39:51.771Z,60.70
2017-08-15T18:42:19.393Z,60.90
2017-08-15T18:44:47.188Z,57.20
2017-08-15T18:47:14.778Z,56.70
2017-08-15T18:49:42.413Z,55.10
2017-08-15T18:52:10.175Z,56.30
2017-08-15T18:54:37.758Z,56.00
2017-08-15T18:57:06.488Z,56.20
2017-08-15T18:59:34.190Z,57.30
2017-08-15T19:02:01.772Z,56.60
2017-08-15T19:04:31.338Z,55.50
2017-08-15T19:06:59.800Z,55.50
2017-08-15T19:09:27.532Z,55.90
2017-08-15T19:11:56.152Z,56.50
2017-08-15T19:14:23.798Z,57.20
2017-08-15T19:16:51.323Z,56.10
2017-08-15T19:19:19.701Z,56.20
2017-08-15T19:21:47.496Z,56.40
2017-08-15T19:24:15.440Z,55.50
2017-08-15T19:26:43.952Z,56.80
2017-08-15T19:29:11.710Z,56.10
2017-08-15T19:31:39.270Z,55.00
2017-08-15T19:34:06.859Z,55.20
2017-08-15T19:36:34.736Z,55.00
2017-08-15T19:39:02.311Z,55.70
2017-08-15T19:41:29.913Z,55.80
2017-08-15T19:43:57.648Z,55.10
2017-08-15T19:46:25.222Z,54.90
2017-08-15T19:48:52.805Z,54.10
2017-08-15T19:51:20.448Z,54.20
2017-08-15T19:53:48.039Z,54.40
2017-08-15T19:56:16.215Z,53.10
2017-08-15T19:58:43.940Z,53.70
2017-08-15T20:01:12.043Z,54.20
2017-08-15T20:03:39.602Z,54.80
2017-08-15T20:06:07.351Z,55.20
2017-08-15T20:08:34.959Z,55.40
2017-08-15T20:11:02.566Z,54.20
2017-08-15T20:13:30.245Z,55.00
2017-08-15T20:15:58.025Z,54.70
2017-08-15T20:18:26.369Z,54.20
2017-08-15T20:20:54.696Z,54.30
2017-08-15T20:23:22.235Z,53.70
2017-08-15T20:25:50.650Z,53.40
2017-08-15T20:28:18.460Z,53.50
2017-08-15T20:30:46.081Z,53.50
2017-08-15T20:33:13.995Z,53.70
2017-08-15T20:35:42.240Z,54.30
2017-08-15T20:38:10.881Z,53.90
2017-08-15T20:40:40.139Z,53.90
2017-08-15T20:43:08.036Z,54.70
2017-08-15T20:45:35.662Z,54.70
2017-08-15T20:48:03.341Z,54.50
2017-08-15T20:50:31.223Z,54.80
2017-08-15T20:52:58.869Z,54.50
2017-08-15T20:55:26.499Z,55.10
2017-08-15T20:57:54.373Z,54.00
2017-08-15T21:00:22.067Z,54.30
2017-08-15T21:02:49.728Z,53.80
2017-08-15T21:05:18.785Z,54.30
2017-08-15T21:07:46.424Z,54.80
2017-08-15T21:10:14.258Z,55.20
2017-08-15T21:12:42.561Z,55.00
2017-08-15T21:15:10.152Z,55.50
2017-08-15T21:17:38.211Z,55.50
2017-08-15T21:20:06.874Z,56.00
2017-08-15T21:22:34.508Z,55.90
2017-08-15T21:25:02.070Z,56.40
2017-08-15T21:27:30.358Z,56.80
2017-08-15T21:29:57.918Z,57.20
2017-08-15T21:32:25.500Z,57.10
2017-08-15T21:34:53.253Z,57.40
2017-08-15T21:37:20.801Z,57.60
2017-08-15T21:39:48.305Z,56.90
2017-08-15T21:42:15.861Z,56.90
2017-08-15T21:44:43.442Z,57.20
2017-08-15T21:47:10.985Z,57.60
2017-08-15T21:49:38.754Z,57.90
2017-08-15T21:52:06.294Z,56.80
2017-08-15T21:54:33.906Z,57.90
2017-08-15T21:57:01.479Z,57.70
2017-08-15T21:59:29.062Z,57.30
2017-08-15T22:02:02.193Z,57.50
2017-08-15T22:04:29.726Z,57.50
2017-08-15T22:06:57.254Z,57.80
2017-08-15T22:09:24.784Z,57.20
2017-08-15T22:11:52.282Z,57.70
2017-08-15T22:14:19.854Z,57.50
2017-08-15T22:16:47.406Z,58.40
2017-08-15T22:19:14.911Z,58.70
2017-08-15T22:21:42.486Z,58.70
2017-08-15T22:24:10.287Z,59.30
2017-08-15T22:26:37.874Z,59.10
2017-08-15T22:29:05.417Z,60.00
2017-08-15T22:31:32.976Z,61.30
2017-08-15T22:34:00.532Z,61.20
2017-08-15T22:36:28.021Z,62.60
2017-08-15T22:38:55.617Z,62.80
2017-08-15T22:41:23.132Z,63.80
2017-08-15T22:43:50.703Z,64.30
2017-08-15T22:46:18.276Z,65.10
2017-08-15T22:48:45.842Z,65.40
2017-08-15T22:51:13.344Z,65.20
2017-08-15T22:53:40.951Z,65.80
2017-08-15T22:56:08.488Z,66.50
2017-08-15T22:58:35.987Z,66.20
2017-08-15T23:01:03.541Z,66.40
2017-08-15T23:03:31.068Z,66.90
2017-08-15T23:05:58.665Z,66.20
2017-08-15T23:08:26.185Z,67.50
2017-08-15T23:10:53.782Z,67.20
2017-08-15T23:13:21.330Z,67.80
2017-08-15T23:15:48.924Z,68.30
2017-08-15T23:18:16.466Z,68.60
2017-08-15T23:20:44.004Z,68.40
2017-08-15T23:23:11.614Z,68.60
2017-08-15T23:25:39.153Z,68.40
2017-08-15T23:28:06.699Z,68.30
2017-08-15T23:30:34.269Z,69.00
2017-08-15T23:33:01.814Z,69.80
2017-08-15T23:35:29.362Z,68.70
2017-08-15T23:37:56.906Z,68.40
2017-08-15T23:40:24.374Z,66.80
2017-08-15T23:42:51.912Z,66.10
2017-08-15T23:45:19.502Z,65.50
2017-08-15T23:47:47.029Z,65.30
2017-08-15T23:50:14.609Z,65.40
2017-08-15T23:52:42.373Z,65.40
2017-08-15T23:55:09.907Z,64.10
2017-08-15T23:57:37.410Z,63.50
